Overview Statistics Trail Chart Weather Telemetry Raw packets
 

This is the latest recevied weather packets stored in our database for station/object OE6PWE-13. If no packets are shown the sender has not sent any weather packets the latest 10 day(s).

<< 1 2 3 4 >>
Time Temp. Humidity Pressure Rain* Wind** Luminosity Snow
1788702312 27.78° C 49% 1023 hPa 0 mm - - -
1788701412 27.22° C 50% 1023 hPa 0 mm - - -
1788700512 27.22° C 50% 1023 hPa 0 mm - - -
1788699612 26.67° C 51% 1023 hPa 0 mm - - -
1788698712 26.67° C 52% 1023 hPa 0 mm - - -
1788697813 27.22° C 53% 1024 hPa 0 mm - - -
1788696912 26.67° C 52% 1024 hPa 0 mm - - -
1788696012 26.11° C 55% 1024 hPa 0 mm - - -
1788695112 25.56° C 55% 1024 hPa 0 mm - - -
1788694230 25.56° C 59% 1024 hPa 0 mm - - -
1788693312 25° C 59% 1024 hPa 0 mm - - -
1788692412 25° C 59% 1024 hPa 0 mm - - -
1788691512 24.44° C 60% 1025 hPa 0 mm - - -
1788690611 23.89° C 61% 1025 hPa 0 mm - - -
1788689711 22.78° C 65% 1025 hPa 0 mm - - -
1788688847 23.33° C 64% 1025 hPa 0 mm - - -
1788687912 22.78° C 65% 1025 hPa 0 mm - - -
1788687034 22.78° C 66% 1025 hPa 0 mm - - -
1788686112 22.78° C 70% 1025 hPa 0 mm - - -
1788685245 21.67° C 73% 1026 hPa 0 mm - - -
1788684311 18.89° C 82% 1026 hPa 0 mm - - -
1788683431 16.67° C 98% 1027 hPa 0 mm - - -
1788682511 15.56° C 99% 1027 hPa 0 mm - - -
1788681641 15.56° C 99% 1027 hPa 0 mm - - -
1788680711 15.56° C 99% 1027 hPa 0 mm - - -

* Rain latest hour (hover to see other rain measurements)
** Current wind speed in m/s (hover to see current wind gust speed)